Time;durP1;ratioP1;P1;durP2;ratioP2;P2;SDS_P1;SDS_P2;PMS_P1;PMS_P2;Temp;Humidity;BMP_temperature;BMP_pressure;BME280_temperature;BME280_humidity;BME280_pressure;Samples;Min_cycle;Max_cycle;Signal;HPM_P1;HPM_P2
2021/08/06 00:00:25;;;;;;;2.65;2.20;;;16.90;99.90;;;;;;6197040;28;20100;-77
2021/08/06 00:03:28;;;;;;;3.25;2.35;;;16.90;99.90;;;;;;6197088;28;20070;-77
2021/08/06 00:06:30;;;;;;;2.90;2.30;;;16.90;99.90;;;;;;6200132;28;20428;-76
2021/08/06 00:09:37;;;;;;;2.40;1.92;;;16.80;99.90;;;;;;6201668;28;20092;-76
2021/08/06 00:12:39;;;;;;;2.83;2.43;;;16.80;99.90;;;;;;6201305;28;20055;-77
2021/08/06 00:15:41;;;;;;;3.88;2.40;;;16.80;99.90;;;;;;6201003;28;20055;-75
2021/08/06 00:18:43;;;;;;;2.92;2.30;;;16.70;99.90;;;;;;6200908;28;20054;-77
2021/08/06 00:21:45;;;;;;;6.15;2.85;;;16.70;99.90;;;;;;6201754;28;20082;-77
2021/08/06 00:24:48;;;;;;;6.80;3.28;;;16.70;99.90;;;;;;6200807;28;20068;-77
2021/08/06 00:27:50;;;;;;;5.50;2.65;;;16.70;99.90;;;;;;6200573;28;20053;-76
2021/08/06 00:30:52;;;;;;;3.45;2.75;;;16.60;99.90;;;;;;6200667;28;20504;-77
2021/08/06 00:33:54;;;;;;;5.43;3.25;;;16.60;99.90;;;;;;6201457;28;20050;-77
2021/08/06 00:36:56;;;;;;;3.30;2.65;;;16.50;99.90;;;;;;6200270;28;20124;-76
2021/08/06 00:39:59;;;;;;;6.75;3.03;;;16.50;99.90;;;;;;6200629;28;20129;-76
2021/08/06 00:43:01;;;;;;;3.05;2.67;;;16.40;99.90;;;;;;6203647;28;20120;-76
2021/08/06 00:46:04;;;;;;;6.00;3.33;;;16.40;99.90;;;;;;6225173;28;20100;-77
2021/08/06 00:49:07;;;;;;;12.13;4.30;;;16.30;99.90;;;;;;6224554;28;20097;-76
2021/08/06 00:52:10;;;;;;;7.50;2.83;;;16.20;99.90;;;;;;6224503;28;20124;-77
2021/08/06 00:55:13;;;;;;;3.40;2.80;;;16.20;99.90;;;;;;6224601;28;20042;-76
2021/08/06 00:58:16;;;;;;;4.20;2.65;;;16.20;99.90;;;;;;6225060;28;20129;-76
2021/08/06 01:01:20;;;;;;;2.90;2.60;;;16.20;99.90;;;;;;6224275;28;20133;-76
2021/08/06 01:04:26;;;;;;;7.68;4.68;;;16.20;99.90;;;;;;6224193;28;20166;-76
2021/08/06 01:07:39;;;;;;;5.53;2.63;;;16.30;99.90;;;;;;6224232;28;20041;-76
2021/08/06 01:10:47;;;;;;;4.20;2.70;;;16.20;99.90;;;;;;6224650;28;20058;-76
2021/08/06 01:13:51;;;;;;;;;;;16.20;99.90;;;;;;6224976;28;20060;-77
2021/08/06 01:16:56;;;;;;;2.90;2.70;;;16.30;99.90;;;;;;6223150;28;19921;-76
2021/08/06 01:20:04;;;;;;;4.38;2.88;;;16.20;99.90;;;;;;6224043;28;20046;-76
2021/08/06 01:23:15;;;;;;;3.80;2.88;;;16.20;99.90;;;;;;6224324;28;20053;-77
2021/08/06 01:26:20;;;;;;;3.13;2.22;;;16.30;99.90;;;;;;6224021;28;20579;-75
2021/08/06 01:29:22;;;;;;;3.10;2.78;;;16.30;99.90;;;;;;6223893;28;20128;-77
2021/08/06 01:32:29;;;;;;;3.05;2.50;;;16.30;99.90;;;;;;6223652;28;20135;-77
2021/08/06 01:35:31;;;;;;;6.63;3.00;;;16.40;99.90;;;;;;6223738;28;20168;-77
2021/08/06 01:38:33;;;;;;;5.25;2.45;;;16.40;99.90;;;;;;6223805;28;20086;-77
2021/08/06 01:41:44;;;;;;;6.15;2.92;;;16.40;99.90;;;;;;6223804;28;20735;-76
2021/08/06 01:44:51;;;;;;;6.25;2.25;;;16.40;99.90;;;;;;6223538;28;20438;-76
2021/08/06 01:47:54;;;;;;;2.88;2.10;;;16.30;99.90;;;;;;6222837;28;20454;-77
2021/08/06 01:50:57;;;;;;;5.95;2.50;;;16.40;99.90;;;;;;6223486;28;20085;-76
2021/08/06 01:53:59;;;;;;;2.97;2.25;;;16.40;99.90;;;;;;6223802;28;20076;-77
2021/08/06 01:57:04;;;;;;;17.75;3.78;;;16.50;99.90;;;;;;6222803;28;20097;-76
2021/08/06 02:00:08;;;;;;;2.95;2.50;;;16.40;99.90;;;;;;6222898;28;20495;-76
2021/08/06 02:03:10;;;;;;;3.58;2.90;;;16.50;99.90;;;;;;6223213;28;20119;-76
2021/08/06 02:06:12;;;;;;;6.43;2.38;;;16.50;99.90;;;;;;6223404;28;20049;-77
2021/08/06 02:09:17;;;;;;;3.78;2.55;;;16.60;99.90;;;;;;6222701;28;20065;-77
2021/08/06 02:12:20;;;;;;;4.13;2.63;;;16.60;99.90;;;;;;6222797;28;20046;-77
2021/08/06 02:15:22;;;;;;;2.95;2.70;;;16.60;99.90;;;;;;6222741;28;20496;-77
2021/08/06 02:18:25;;;;;;;3.65;2.15;;;16.60;99.90;;;;;;6223265;28;20095;-77
2021/08/06 02:21:31;;;;;;;8.10;3.33;;;16.60;99.90;;;;;;6222678;28;20049;-76
2021/08/06 02:24:34;;;;;;;3.10;2.80;;;16.70;99.90;;;;;;6222583;28;20049;-77
2021/08/06 02:27:39;;;;;;;3.97;3.10;;;16.60;99.90;;;;;;6221915;28;20049;-77
2021/08/06 02:30:42;;;;;;;3.75;3.45;;;16.70;99.90;;;;;;6222448;28;20766;-77
2021/08/06 02:33:44;;;;;;;3.20;2.63;;;16.70;99.90;;;;;;6222802;28;20056;-77
2021/08/06 02:36:47;;;;;;;3.70;3.00;;;16.70;99.90;;;;;;6222286;28;20046;-76
2021/08/06 02:39:49;;;;;;;4.13;2.80;;;16.70;99.90;;;;;;6222023;28;20046;-77
2021/08/06 02:42:53;;;;;;;5.40;3.55;;;16.70;99.90;;;;;;6222216;28;20444;-77
2021/08/06 02:45:55;;;;;;;3.72;3.33;;;16.80;99.90;;;;;;6222311;28;20460;-77
2021/08/06 02:48:56;;;;;;;6.28;3.25;;;16.80;99.90;;;;;;6222339;28;20540;-76
2021/08/06 02:51:58;;;;;;;5.20;3.65;;;16.80;99.90;;;;;;6222187;28;20565;-76
2021/08/06 02:55:00;;;;;;;3.78;3.47;;;16.80;99.90;;;;;;6222229;28;20111;-76
2021/08/06 02:58:03;;;;;;;4.50;3.83;;;16.90;99.90;;;;;;6221956;28;20180;-76
2021/08/06 03:01:05;;;;;;;4.18;2.95;;;16.90;99.90;;;;;;6221840;28;20472;-76
2021/08/06 03:04:07;;;;;;;6.10;3.13;;;16.90;99.90;;;;;;6221516;28;20050;-76
2021/08/06 03:07:09;;;;;;;3.85;2.72;;;16.90;99.90;;;;;;6221520;28;20042;-76
2021/08/06 03:10:12;;;;;;;5.65;3.35;;;16.90;99.90;;;;;;6222271;28;20042;-76
2021/08/06 03:13:15;;;;;;;6.57;4.10;;;16.90;99.90;;;;;;6221639;28;20050;-76
2021/08/06 03:16:17;;;;;;;4.38;3.08;;;17.00;99.90;;;;;;6221606;28;20250;-76
2021/08/06 03:19:19;;;;;;;8.40;3.60;;;17.00;99.90;;;;;;6221658;28;20048;-76
2021/08/06 03:22:20;;;;;;;4.65;4.07;;;17.10;99.90;;;;;;6222263;28;20112;-76
2021/08/06 03:25:22;;;;;;;9.25;3.20;;;17.10;99.90;;;;;;6221559;28;20050;-76
2021/08/06 03:28:25;;;;;;;4.50;4.07;;;17.10;99.90;;;;;;6221575;28;20125;-76
2021/08/06 03:31:27;;;;;;;5.43;3.55;;;17.10;99.90;;;;;;6221692;28;20119;-75
2021/08/06 03:34:30;;;;;;;5.15;4.47;;;17.20;99.90;;;;;;6222397;28;20049;-74
2021/08/06 03:37:32;;;;;;;9.10;5.97;;;17.10;99.90;;;;;;6221820;28;20148;-75
2021/08/06 03:40:34;;;;;;;7.60;4.32;;;17.00;99.90;;;;;;6223567;28;20423;-75
2021/08/06 03:43:37;;;;;;;6.72;6.03;;;17.00;99.90;;;;;;6226506;28;20191;-75
2021/08/06 03:46:39;;;;;;;8.00;4.30;;;17.00;99.90;;;;;;6225899;28;20144;-75
2021/08/06 03:49:40;;;;;;;9.55;3.75;;;16.90;99.90;;;;;;6226660;28;20081;-75
2021/08/06 03:52:42;;;;;;;10.63;4.78;;;16.90;99.90;;;;;;6227768;28;20073;-75
2021/08/06 03:55:44;;;;;;;12.15;5.80;;;16.90;99.90;;;;;;6225751;28;20404;-76
2021/08/06 03:58:47;;;;;;;6.38;5.20;;;16.90;99.90;;;;;;6226782;28;20042;-75
2021/08/06 04:01:49;;;;;;;6.72;5.15;;;16.90;99.90;;;;;;6226476;28;20093;-75
2021/08/06 04:04:51;;;;;;;9.45;5.50;;;16.90;99.90;;;;;;6225817;28;20455;-75
2021/08/06 04:07:53;;;;;;;10.25;5.78;;;16.90;99.90;;;;;;6225577;28;20045;-75
2021/08/06 04:10:55;;;;;;;11.23;6.25;;;16.90;99.90;;;;;;6225439;28;20056;-76
2021/08/06 04:13:58;;;;;;;7.40;5.22;;;16.90;99.90;;;;;;6225961;28;20140;-75
2021/08/06 04:17:00;;;;;;;8.13;6.07;;;16.90;99.90;;;;;;6225404;28;20107;-75
2021/08/06 04:20:02;;;;;;;6.82;4.70;;;16.90;99.90;;;;;;6225314;28;20096;-75
2021/08/06 04:23:04;;;;;;;7.20;4.63;;;16.90;99.90;;;;;;6225505;28;20133;-75
2021/08/06 04:26:05;;;;;;;8.45;5.32;;;16.90;99.90;;;;;;6225585;28;20054;-76
2021/08/06 04:29:09;;;;;;;7.57;5.40;;;16.80;99.90;;;;;;6225198;28;20176;-75
2021/08/06 04:32:10;;;;;;;11.98;5.65;;;16.90;99.90;;;;;;6225057;28;20128;-75
2021/08/06 04:35:12;;;;;;;10.48;5.78;;;16.90;99.90;;;;;;6225221;28;20567;-75
2021/08/06 04:38:14;;;;;;;10.18;5.97;;;16.90;99.90;;;;;;6225029;28;20128;-75
2021/08/06 04:41:16;;;;;;;9.65;5.15;;;16.90;99.90;;;;;;6225419;28;20112;-75
2021/08/06 04:44:20;;;;;;;7.93;5.80;;;16.90;99.90;;;;;;6225460;28;20522;-75
2021/08/06 04:47:21;;;;;;;9.40;5.95;;;16.80;99.90;;;;;;6225075;28;20073;-75
2021/08/06 04:50:24;;;;;;;8.52;6.13;;;16.80;99.90;;;;;;6225407;28;20546;-75
2021/08/06 04:53:26;;;;;;;6.30;5.65;;;16.80;99.90;;;;;;6223803;28;20534;-75
2021/08/06 04:56:28;;;;;;;8.07;6.07;;;16.80;99.90;;;;;;6224581;28;20443;-75
2021/08/06 04:59:31;;;;;;;10.45;6.05;;;16.80;99.90;;;;;;6224568;28;20465;-75
2021/08/06 05:02:33;;;;;;;12.88;7.38;;;16.80;99.90;;;;;;6225015;28;20056;-75
2021/08/06 05:05:36;;;;;;;11.98;7.05;;;16.80;99.90;;;;;;6225324;28;20180;-75
2021/08/06 05:08:39;;;;;;;7.13;6.00;;;16.90;99.90;;;;;;6226660;28;20048;-75
2021/08/06 05:11:40;;;;;;;6.53;5.55;;;17.00;99.90;;;;;;6245630;28;20057;-75
2021/08/06 05:14:43;;;;;;;7.20;5.78;;;17.00;99.90;;;;;;6254027;28;20069;-76
2021/08/06 05:17:45;;;;;;;8.27;6.35;;;17.10;99.90;;;;;;6256680;28;20057;-76
2021/08/06 05:20:47;;;;;;;8.65;6.90;;;17.20;99.90;;;;;;6256379;28;20072;-76
2021/08/06 05:23:49;;;;;;;9.13;6.57;;;17.30;99.90;;;;;;6256470;28;20077;-75
2021/08/06 05:26:51;;;;;;;9.52;6.82;;;17.30;99.90;;;;;;6255667;28;20040;-75
2021/08/06 05:29:54;;;;;;;6.63;5.38;;;17.50;99.90;;;;;;6256599;28;20084;-75
2021/08/06 05:32:56;;;;;;;8.38;6.05;;;17.70;99.90;;;;;;6255772;28;20054;-75
2021/08/06 05:35:57;;;;;;;6.75;5.60;;;17.80;99.90;;;;;;6255562;28;20049;-75
2021/08/06 05:38:59;;;;;;;7.20;5.68;;;18.00;99.90;;;;;;6255348;28;20324;-75
2021/08/06 05:42:01;;;;;;;5.18;4.68;;;18.10;99.90;;;;;;6255750;28;20030;-75
2021/08/06 05:45:05;;;;;;;5.57;4.03;;;18.10;99.90;;;;;;6254807;28;20034;-76
2021/08/06 05:48:08;;;;;;;6.70;4.50;;;18.10;99.90;;;;;;6249672;28;20057;-74
2021/08/06 05:51:10;;;;;;;8.55;5.13;;;18.20;99.90;;;;;;6223541;28;20045;-74
2021/08/06 05:54:12;;;;;;;6.10;4.28;;;18.40;99.90;;;;;;6223556;28;20503;-75
2021/08/06 05:57:13;;;;;;;8.85;4.18;;;18.70;99.90;;;;;;6222676;28;20101;-75
2021/08/06 06:00:17;;;;;;;3.90;3.45;;;19.10;99.90;;;;;;6223148;28;20057;-75
2021/08/06 06:03:19;;;;;;;4.47;3.00;;;19.30;99.90;;;;;;6220630;28;20067;-75
2021/08/06 06:06:21;;;;;;;4.75;3.83;;;19.30;99.90;;;;;;6216287;28;20411;-75
2021/08/06 06:09:23;;;;;;;5.00;3.75;;;19.20;99.90;;;;;;6222560;28;20478;-76
2021/08/06 06:12:25;;;;;;;4.40;3.08;;;19.00;99.90;;;;;;6222286;28;20266;-75
2021/08/06 06:15:29;;;;;;;3.28;2.97;;;18.90;99.90;;;;;;6222766;28;20511;-75
2021/08/06 06:18:31;;;;;;;5.07;3.25;;;18.80;99.90;;;;;;6222592;28;20164;-75
2021/08/06 06:21:33;;;;;;;5.35;2.50;;;18.70;99.90;;;;;;6223489;28;20128;-75
2021/08/06 06:24:35;;;;;;;4.65;3.22;;;18.70;99.90;;;;;;6222890;28;20054;-76
2021/08/06 06:27:48;;;;;;;3.78;2.67;;;18.70;99.90;;;;;;6228905;28;20049;-75
2021/08/06 06:30:51;;;;;;;3.50;3.03;;;18.60;99.90;;;;;;6226980;28;20132;-75
2021/08/06 06:33:53;;;;;;;2.22;2.03;;;18.50;99.90;;;;;;6223262;28;20045;-75
2021/08/06 06:36:55;;;;;;;4.53;2.53;;;18.40;99.90;;;;;;6221652;28;20054;-75
2021/08/06 06:39:57;;;;;;;3.70;2.80;;;18.40;99.90;;;;;;6222164;28;20080;-75
2021/08/06 06:42:59;;;;;;;2.78;2.10;;;18.40;99.90;;;;;;6222090;28;20081;-76
2021/08/06 06:46:02;;;;;;;2.53;2.10;;;18.40;99.90;;;;;;6222206;28;20557;-75
2021/08/06 06:49:04;;;;;;;2.45;2.03;;;18.30;99.90;;;;;;6221997;28;20116;-75
2021/08/06 06:52:06;;;;;;;2.70;2.47;;;18.30;99.90;;;;;;6221962;28;20392;-76
2021/08/06 06:55:09;;;;;;;3.22;2.65;;;18.30;99.90;;;;;;6222043;28;20508;-75
2021/08/06 06:58:11;;;;;;;3.15;2.10;;;18.30;99.90;;;;;;6221762;28;20081;-75
2021/08/06 07:01:14;;;;;;;10.48;2.28;;;18.40;99.90;;;;;;6221916;28;20050;-76
2021/08/06 07:04:16;;;;;;;2.30;2.10;;;18.40;99.90;;;;;;6221721;28;20127;-75
2021/08/06 07:07:18;;;;;;;2.00;1.40;;;18.50;99.90;;;;;;6221629;28;20041;-76
2021/08/06 07:10:20;;;;;;;2.38;2.05;;;18.60;99.90;;;;;;6222219;28;20046;-75
2021/08/06 07:13:22;;;;;;;5.47;2.97;;;18.90;99.90;;;;;;6221805;28;20120;-75
2021/08/06 07:16:25;;;;;;;2.42;1.95;;;19.00;99.90;;;;;;6224685;28;20129;-75
2021/08/06 07:19:27;;;;;;;3.53;2.10;;;19.10;99.90;;;;;;6226714;28;20184;-75
2021/08/06 07:22:29;;;;;;;3.80;1.92;;;19.10;99.90;;;;;;6226961;28;20136;-75
2021/08/06 07:25:31;;;;;;;3.33;1.83;;;19.00;99.90;;;;;;6226854;28;20096;-76
2021/08/06 07:28:32;;;;;;;2.83;2.28;;;18.90;99.90;;;;;;6226240;28;20093;-75
2021/08/06 07:31:36;;;;;;;2.78;2.15;;;18.90;99.90;;;;;;6226552;28;20077;-76
2021/08/06 07:34:38;;;;;;;3.15;2.20;;;18.90;99.90;;;;;;6226448;28;20564;-75
2021/08/06 07:37:41;;;;;;;2.88;2.15;;;18.80;99.90;;;;;;6226488;28;20618;-76
2021/08/06 07:40:43;;;;;;;3.05;1.67;;;18.80;99.90;;;;;;6226435;28;20049;-75
2021/08/06 07:43:44;;;;;;;2.63;2.40;;;18.90;99.90;;;;;;6226095;28;20514;-75
2021/08/06 07:46:48;;;;;;;1.85;1.67;;;18.80;99.90;;;;;;6225889;28;20141;-75
2021/08/06 07:49:49;;;;;;;3.40;2.00;;;18.80;99.90;;;;;;6226791;28;20119;-76
2021/08/06 07:52:51;;;;;;;1.83;1.70;;;18.90;99.90;;;;;;6226194;28;20128;-76
2021/08/06 07:55:53;;;;;;;2.83;2.00;;;18.90;99.90;;;;;;6225670;28;20460;-76
2021/08/06 07:58:55;;;;;;;2.70;1.60;;;19.10;99.90;;;;;;6225840;28;20045;-75
2021/08/06 08:01:59;;;;;;;2.10;1.60;;;19.40;99.90;;;;;;6226199;28;20061;-76
2021/08/06 08:05:00;;;;;;;7.18;1.85;;;19.70;99.90;;;;;;6225489;28;20100;-76
2021/08/06 08:08:03;;;;;;;3.10;2.80;;;19.80;99.90;;;;;;6225563;28;20048;-76
2021/08/06 08:11:04;;;;;;;1.75;1.08;;;19.90;99.90;;;;;;6225895;28;20154;-75
2021/08/06 08:14:06;;;;;;;1.50;0.90;;;20.10;99.90;;;;;;6225991;28;20184;-75
2021/08/06 08:17:10;;;;;;;1.30;0.85;;;20.30;99.90;;;;;;6225247;28;20124;-74
2021/08/06 08:20:12;;;;;;;1.20;0.90;;;20.40;99.90;;;;;;6225530;28;20141;-75
2021/08/06 08:23:14;;;;;;;1.50;0.70;;;20.50;99.90;;;;;;6225543;28;20136;-75
2021/08/06 08:26:16;;;;;;;2.72;0.98;;;20.90;99.90;;;;;;6225460;28;20131;-75
2021/08/06 08:29:17;;;;;;;1.63;1.20;;;21.20;99.10;;;;;;6225004;28;20639;-76
2021/08/06 08:32:21;;;;;;;0.93;0.70;;;21.40;96.50;;;;;;6225129;28;20163;-76
2021/08/06 08:35:22;;;;;;;2.03;0.70;;;21.60;94.40;;;;;;6225098;28;20116;-75
2021/08/06 08:38:24;;;;;;;1.00;0.90;;;21.80;93.90;;;;;;6225473;28;20574;-75
2021/08/06 08:41:27;;;;;;;1.30;1.02;;;22.10;91.20;;;;;;6225022;28;20046;-75
2021/08/06 08:44:32;;;;;;;3.25;0.70;;;22.20;89.40;;;;;;6225183;28;20129;-75
2021/08/06 08:47:37;;;;;;;1.75;1.25;;;22.50;88.00;;;;;;6224523;28;20196;-75
2021/08/06 08:50:41;;;;;;;2.90;0.80;;;22.80;84.60;;;;;;6225161;28;20120;-75
2021/08/06 08:53:43;;;;;;;1.48;0.73;;;23.20;82.70;;;;;;6225554;28;20133;-76
2021/08/06 08:56:45;;;;;;;2.58;0.88;;;23.60;79.90;;;;;;6224237;28;20495;-75
2021/08/06 08:59:47;;;;;;;1.58;1.13;;;23.70;79.20;;;;;;6224589;28;20077;-75
2021/08/06 09:02:50;;;;;;;4.78;3.25;;;23.40;77.50;;;;;;6223647;28;20057;-75
2021/08/06 09:05:52;;;;;;;0.95;0.60;;;22.90;77.70;;;;;;6224650;28;20054;-76
2021/08/06 09:09:12;;;;;;;1.35;0.85;;;22.50;79.10;;;;;;6224437;28;20104;-76
2021/08/06 09:12:14;;;;;;;1.25;0.60;;;22.10;82.90;;;;;;6224329;28;20049;-75
2021/08/06 09:15:17;;;;;;;2.35;1.17;;;21.80;84.30;;;;;;6224377;28;20042;-76
2021/08/06 09:18:32;;;;;;;1.20;1.10;;;21.40;86.20;;;;;;6224112;28;20555;-76
2021/08/06 09:21:34;;;;;;;3.10;1.00;;;21.30;88.40;;;;;;6223964;28;20476;-75
2021/08/06 09:24:45;;;;;;;1.80;1.40;;;21.10;89.90;;;;;;6224094;28;20056;-76
2021/08/06 09:27:48;;;;;;;2.65;1.50;;;20.90;90.70;;;;;;6223598;28;20111;-76
2021/08/06 09:30:51;;;;;;;2.55;1.30;;;20.60;91.90;;;;;;6224227;28;20078;-75
2021/08/06 09:37:22;;;;;;;3.70;1.42;;;20.40;93.70;;;;;;6293715;27;20722;-75
2021/08/06 09:40:26;;;;;;;1.95;1.85;;;21.40;96.50;;;;;;6277010;28;20045;-75
2021/08/06 09:43:28;;;;;;;2.17;1.02;;;22.00;95.80;;;;;;6268185;28;20183;-75
2021/08/06 09:46:31;;;;;;;5.63;1.20;;;22.30;93.50;;;;;;6267586;28;20561;-74
2021/08/06 09:49:33;;;;;;;4.13;0.90;;;22.40;90.30;;;;;;6268390;28;20138;-75
2021/08/06 09:52:38;;;;;;;5.40;2.83;;;22.30;86.10;;;;;;6267776;28;20136;-75
2021/08/06 09:55:43;;;;;;;6.80;1.85;;;22.20;83.50;;;;;;6267486;28;20134;-74
2021/08/06 09:58:58;;;;;;;7.38;2.15;;;21.90;85.00;;;;;;6267394;28;20052;-75
2021/08/06 10:02:18;;;;;;;3.00;1.95;;;21.30;90.30;;;;;;6268595;28;20082;-75
2021/08/06 10:05:21;;;;;;;4.22;2.20;;;20.70;92.20;;;;;;6267317;28;20041;-75
2021/08/06 10:08:24;;;;;;;3.08;2.05;;;20.40;94.80;;;;;;6267145;28;20175;-75
2021/08/06 10:11:26;;;;;;;7.07;2.85;;;20.50;97.40;;;;;;6267322;28;20195;-75
2021/08/06 10:14:28;;;;;;;7.53;3.15;;;20.60;98.40;;;;;;6267722;28;20144;-75
2021/08/06 10:17:30;;;;;;;2.15;1.70;;;20.90;99.80;;;;;;6291994;28;20138;-74
2021/08/06 10:20:33;;;;;;;3.85;2.08;;;21.10;98.50;;;;;;6291706;28;20569;-74
2021/08/06 10:23:36;;;;;;;1.75;1.60;;;21.20;97.90;;;;;;6291796;28;20045;-75
2021/08/06 10:26:38;;;;;;;3.97;2.35;;;21.20;97.60;;;;;;6291228;28;20165;-75
2021/08/06 10:29:55;;;;;;;2.90;1.60;;;21.20;97.70;;;;;;6291904;28;20143;-75
2021/08/06 10:33:12;;;;;;;1.70;1.45;;;21.20;96.50;;;;;;6291463;28;20061;-75
2021/08/06 10:36:14;;;;;;;1.92;1.73;;;21.30;96.70;;;;;;6290865;28;20538;-74
2021/08/06 10:39:43;;;;;;;3.17;1.48;;;21.40;96.40;;;;;;6291218;28;20048;-75
2021/08/06 10:42:45;;;;;;;3.00;1.48;;;21.50;95.80;;;;;;6293345;28;20242;-74
2021/08/06 10:45:56;;;;;;;3.28;1.48;;;21.60;93.30;;;;;;6316493;28;20565;-75
2021/08/06 10:49:10;;;;;;;5.00;1.48;;;21.60;92.90;;;;;;6299110;28;20121;-75
2021/08/06 10:52:17;;;;;;;2.13;1.08;;;21.60;93.40;;;;;;6299661;28;20135;-75
2021/08/06 10:55:21;;;;;;;2.60;1.15;;;21.80;92.30;;;;;;6299353;28;20457;-75
2021/08/06 10:58:54;;;;;;;3.28;0.90;;;21.90;91.80;;;;;;6299583;28;20266;-75
2021/08/06 11:01:56;;;;;;;2.72;0.95;;;22.10;89.30;;;;;;6299643;28;20128;-74
2021/08/06 11:04:58;;;;;;;2.50;1.00;;;22.30;88.20;;;;;;6299073;28;20114;-75
2021/08/06 11:08:01;;;;;;;3.63;0.93;;;22.60;84.80;;;;;;6298793;28;20101;-75
2021/08/06 11:11:04;;;;;;;2.10;0.73;;;22.90;80.30;;;;;;6299173;28;20040;-75
2021/08/06 11:14:06;;;;;;;2.90;0.93;;;23.10;77.90;;;;;;6299158;28;20842;-74
2021/08/06 11:17:09;;;;;;;2.38;0.82;;;23.10;75.90;;;;;;6298695;28;20051;-73
2021/08/06 11:20:14;;;;;;;3.92;2.40;;;23.30;73.20;;;;;;6298967;28;20089;-75
2021/08/06 11:23:16;;;;;;;1.55;1.23;;;23.50;73.00;;;;;;6298916;28;20119;-75
2021/08/06 11:26:19;;;;;;;5.50;0.95;;;23.80;73.10;;;;;;6298984;28;20190;-75
2021/08/06 11:29:21;;;;;;;1.58;1.35;;;24.10;70.00;;;;;;6298441;28;20221;-75
2021/08/06 11:32:23;;;;;;;0.95;0.50;;;24.40;67.90;;;;;;6298347;28;20525;-75
2021/08/06 11:35:26;;;;;;;2.83;0.40;;;24.60;65.70;;;;;;6298232;28;20123;-76
2021/08/06 11:38:29;;;;;;;5.72;1.10;;;24.70;65.50;;;;;;6298698;28;20132;-76
2021/08/06 11:41:32;;;;;;;2.08;1.05;;;24.80;64.60;;;;;;6298419;28;20122;-75
2021/08/06 11:44:34;;;;;;;3.03;0.57;;;24.90;63.60;;;;;;6298063;28;20126;-75
2021/08/06 11:47:37;;;;;;;1.80;0.47;;;25.10;64.30;;;;;;6297873;28;20049;-75
2021/08/06 11:50:42;;;;;;;0.85;0.38;;;25.30;62.30;;;;;;6298181;28;20055;-74
2021/08/06 11:53:44;;;;;;;0.55;0.40;;;25.60;61.00;;;;;;6298328;28;20132;-75
2021/08/06 11:56:58;;;;;;;1.50;0.50;;;25.80;59.10;;;;;;6297470;28;20041;-75
2021/08/06 12:00:15;;;;;;;2.17;0.50;;;26.10;56.50;;;;;;6296789;28;20047;-75
2021/08/06 12:03:18;;;;;;;3.72;0.40;;;26.40;56.50;;;;;;6297817;28;20127;-75
2021/08/06 12:06:21;;;;;;;2.65;0.47;;;26.30;55.80;;;;;;6297885;28;20110;-75
2021/08/06 12:09:23;;;;;;;0.90;0.50;;;26.30;55.60;;;;;;6297660;28;20045;-75
2021/08/06 12:12:31;;;;;;;1.30;0.50;;;26.10;54.90;;;;;;6297528;28;20106;-75
2021/08/06 12:15:33;;;;;;;2.05;0.88;;;25.80;54.50;;;;;;6297660;28;20044;-75
2021/08/06 12:18:36;;;;;;;2.40;0.60;;;25.50;56.10;;;;;;6297655;28;20209;-75
2021/08/06 12:21:39;;;;;;;17.73;6.68;;;25.40;55.60;;;;;;6298549;28;20070;-76
2021/08/06 12:24:41;;;;;;;2.95;1.10;;;25.50;55.80;;;;;;6298262;28;20562;-74
2021/08/06 12:27:44;;;;;;;2.22;1.67;;;25.70;55.20;;;;;;6298124;28;20544;-75
2021/08/06 12:30:46;;;;;;;0.60;0.52;;;25.70;54.80;;;;;;6298374;28;20086;-76
2021/08/06 12:34:01;;;;;;;1.23;0.60;;;25.70;56.20;;;;;;6298554;28;20059;-75
2021/08/06 12:37:05;;;;;;;3.25;1.02;;;25.70;56.30;;;;;;6296683;28;20048;-75
2021/08/06 12:40:08;;;;;;;1.85;0.40;;;25.70;56.90;;;;;;6296890;28;20106;-76
2021/08/06 12:43:20;;;;;;;1.30;0.40;;;25.60;57.40;;;;;;6297259;28;20147;-75
2021/08/06 12:46:22;;;;;;;1.98;0.73;;;25.70;58.60;;;;;;6296660;28;20477;-75
2021/08/06 12:49:26;;;;;;;2.53;1.02;;;25.70;58.00;;;;;;6296307;28;20454;-76
2021/08/06 12:52:30;;;;;;;1.42;0.50;;;25.50;57.20;;;;;;6296845;28;20449;-75
2021/08/06 12:55:32;;;;;;;2.33;1.35;;;25.50;57.60;;;;;;6296528;28;20134;-75
2021/08/06 12:58:35;;;;;;;2.70;0.80;;;25.50;57.40;;;;;;6296012;28;20189;-75
2021/08/06 13:01:38;;;;;;;0.93;0.43;;;25.60;57.10;;;;;;6297081;28;20051;-75
2021/08/06 13:04:40;;;;;;;2.33;0.93;;;25.60;56.70;;;;;;6296130;28;20502;-76
2021/08/06 13:07:41;;;;;;;1.80;0.73;;;25.70;56.90;;;;;;6295716;28;20127;-75
2021/08/06 13:10:44;;;;;;;2.70;0.90;;;25.80;55.70;;;;;;6296002;28;20136;-76
2021/08/06 13:13:48;;;;;;;1.95;0.40;;;25.80;55.70;;;;;;6296119;28;20535;-76
2021/08/06 13:16:50;;;;;;;2.53;0.68;;;25.80;56.60;;;;;;6295494;28;20166;-76
2021/08/06 13:19:52;;;;;;;3.08;0.40;;;25.80;56.60;;;;;;6296289;28;20131;-75
2021/08/06 13:22:54;;;;;;;2.65;0.45;;;26.00;56.10;;;;;;6295986;28;20051;-75
2021/08/06 13:25:56;;;;;;;0.68;0.63;;;26.00;56.00;;;;;;6296221;28;20052;-75
2021/08/06 13:28:59;;;;;;;0.70;0.40;;;25.80;55.60;;;;;;6296025;28;20044;-76
2021/08/06 13:32:03;;;;;;;3.42;0.50;;;25.60;56.80;;;;;;6295770;28;20052;-75
2021/08/06 13:35:06;;;;;;;2.28;0.60;;;25.40;57.00;;;;;;6295655;28;20046;-75
2021/08/06 13:38:08;;;;;;;3.85;0.80;;;25.10;57.20;;;;;;6295750;28;20070;-76
2021/08/06 13:41:09;;;;;;;2.50;0.88;;;24.90;58.10;;;;;;6295860;28;20068;-76
2021/08/06 13:44:13;;;;;;;1.15;0.73;;;24.60;58.60;;;;;;6295773;28;20118;-76
2021/08/06 13:47:14;;;;;;;2.70;0.77;;;24.40;59.50;;;;;;6295529;28;20118;-76
2021/08/06 13:50:17;;;;;;;1.27;0.60;;;24.40;59.40;;;;;;6296195;28;20098;-75
2021/08/06 13:53:19;;;;;;;0.75;0.40;;;24.50;59.50;;;;;;6295755;28;20139;-76
2021/08/06 13:56:21;;;;;;;0.63;0.43;;;24.80;59.40;;;;;;6295456;28;20064;-76
2021/08/06 13:59:24;;;;;;;1.20;0.57;;;25.00;59.30;;;;;;6295513;28;20576;-75
2021/08/06 14:02:26;;;;;;;1.63;1.02;;;25.20;58.40;;;;;;6295915;28;20051;-76
2021/08/06 14:05:28;;;;;;;1.55;0.65;;;25.30;58.50;;;;;;6295286;28;20072;-75
2021/08/06 14:08:30;;;;;;;1.52;0.50;;;25.50;57.30;;;;;;6295235;28;20574;-75
2021/08/06 14:11:33;;;;;;;1.58;0.75;;;25.70;57.40;;;;;;6295456;28;20041;-76
2021/08/06 14:14:36;;;;;;;0.65;0.40;;;26.00;56.50;;;;;;6295495;28;20088;-74
2021/08/06 14:17:38;;;;;;;2.95;0.60;;;26.10;54.50;;;;;;6295293;28;20106;-75
2021/08/06 14:20:39;;;;;;;1.73;0.75;;;26.30;54.40;;;;;;6295146;28;20520;-76
2021/08/06 14:23:41;;;;;;;1.77;0.73;;;26.40;55.40;;;;;;6299224;28;20052;-75
2021/08/06 14:26:45;;;;;;;3.72;0.60;;;26.50;55.10;;;;;;6299801;28;20080;-76
2021/08/06 14:29:48;;;;;;;3.30;0.77;;;26.70;54.90;;;;;;6299946;28;20512;-76
2021/08/06 14:32:50;;;;;;;3.75;0.57;;;26.80;54.70;;;;;;6299776;28;20049;-75
2021/08/06 14:35:52;;;;;;;2.83;0.50;;;26.80;53.90;;;;;;6299417;28;20056;-75
2021/08/06 14:38:54;;;;;;;1.45;0.52;;;26.90;54.40;;;;;;6299927;28;20119;-75
2021/08/06 14:41:55;;;;;;;4.13;1.95;;;26.80;54.30;;;;;;6300142;28;20182;-75
2021/08/06 14:44:58;;;;;;;0.63;0.50;;;26.80;53.80;;;;;;6299457;28;20073;-75
2021/08/06 14:48:01;;;;;;;1.50;0.57;;;26.60;54.50;;;;;;6299322;28;20054;-76
2021/08/06 14:51:03;;;;;;;3.28;0.40;;;26.50;53.90;;;;;;6299822;28;20128;-75
2021/08/06 14:54:05;;;;;;;2.58;0.55;;;26.40;54.40;;;;;;6299683;28;20601;-75
2021/08/06 14:57:06;;;;;;;1.10;0.63;;;26.10;55.40;;;;;;6298876;28;20126;-75
2021/08/06 15:00:11;;;;;;;6.32;1.95;;;26.00;55.20;;;;;;6299353;28;20123;-75
2021/08/06 15:03:13;;;;;;;1.88;0.60;;;26.00;56.40;;;;;;6297665;28;20047;-75
2021/08/06 15:06:15;;;;;;;1.48;0.57;;;25.90;55.60;;;;;;6299204;28;20508;-76
2021/08/06 15:09:17;;;;;;;1.85;0.57;;;25.90;55.40;;;;;;6298934;28;20054;-75
2021/08/06 15:12:18;;;;;;;3.42;2.05;;;25.60;55.50;;;;;;6299149;28;20105;-76
2021/08/06 15:15:22;;;;;;;4.75;1.10;;;25.50;57.00;;;;;;6299121;28;20131;-75
2021/08/06 15:18:24;;;;;;;3.42;0.73;;;25.40;57.60;;;;;;6298943;28;20062;-75
2021/08/06 15:21:27;;;;;;;1.23;0.40;;;25.30;57.50;;;;;;6298975;28;20185;-75
2021/08/06 15:24:29;;;;;;;2.92;0.57;;;25.20;58.00;;;;;;6298779;28;20503;-75
2021/08/06 15:27:30;;;;;;;1.42;0.73;;;25.20;58.50;;;;;;6298619;28;20117;-75
2021/08/06 15:30:34;;;;;;;4.28;0.88;;;25.10;58.70;;;;;;6298608;28;20076;-76
2021/08/06 15:33:36;;;;;;;2.17;0.82;;;24.90;58.50;;;;;;6298811;28;20525;-76
2021/08/06 15:36:38;;;;;;;2.25;0.98;;;24.80;59.20;;;;;;6297785;28;20558;-75
2021/08/06 15:39:40;;;;;;;1.90;0.90;;;24.60;59.50;;;;;;6298318;28;20533;-76
2021/08/06 15:42:42;;;;;;;0.75;0.60;;;24.50;60.30;;;;;;6298279;28;20131;-75
2021/08/06 15:45:46;;;;;;;1.70;0.80;;;24.30;61.00;;;;;;6292634;28;20076;-75
2021/08/06 15:48:47;;;;;;;6.40;1.52;;;24.20;61.50;;;;;;6298077;28;20141;-75
2021/08/06 15:51:49;;;;;;;3.03;0.93;;;24.20;61.70;;;;;;6298026;28;20122;-75
2021/08/06 15:54:52;;;;;;;2.13;0.73;;;24.30;61.50;;;;;;6298149;28;20086;-75